Time;durP1;ratioP1;P1;durP2;ratioP2;P2;SDS_P1;SDS_P2;PMS_P1;PMS_P2;Temp;Humidity;BMP_temperature;BMP_pressure;BME280_temperature;BME280_humidity;BME280_pressure;Samples;Min_cycle;Max_cycle;Signal;HPM_P1;HPM_P2
2022/09/29 00:01:53;;;;;;;0.57;0.57;;;7.70;99.90;;;;;;5035848;28;20202;-69
2022/09/29 00:04:19;;;;;;;0.70;0.70;;;7.60;99.90;;;;;;5035625;28;20197;-69
2022/09/29 00:06:45;;;;;;;0.50;0.50;;;7.60;99.90;;;;;;5035491;28;20649;-70
2022/09/29 00:09:10;;;;;;;0.90;0.90;;;7.60;99.90;;;;;;5035699;28;20277;-69
2022/09/29 00:11:36;;;;;;;0.82;0.82;;;7.50;99.90;;;;;;5035336;28;20205;-70
2022/09/29 00:14:02;;;;;;;0.50;0.50;;;7.50;99.90;;;;;;5035521;28;20194;-69
2022/09/29 00:16:28;;;;;;;1.08;1.08;;;7.50;99.90;;;;;;5050514;28;20575;-70
2022/09/29 00:18:54;;;;;;;0.50;0.50;;;7.50;99.90;;;;;;5035462;28;20277;-70
2022/09/29 00:21:21;;;;;;;0.70;0.70;;;7.50;99.90;;;;;;5035144;28;20494;-69
2022/09/29 00:23:48;;;;;;;0.50;0.50;;;7.50;99.90;;;;;;5035241;28;20543;-70
2022/09/29 00:26:16;;;;;;;0.50;0.50;;;7.50;99.90;;;;;;5033766;28;20234;-70
2022/09/29 00:28:48;;;;;;;0.50;0.50;;;7.50;99.90;;;;;;5035027;28;20202;-70
2022/09/29 00:31:14;;;;;;;0.70;0.70;;;7.50;99.90;;;;;;5035110;28;20212;-70
2022/09/29 00:33:40;;;;;;;0.60;0.60;;;7.50;99.90;;;;;;5034971;28;20252;-70
2022/09/29 00:36:10;;;;;;;0.60;0.60;;;7.50;99.90;;;;;;5035047;28;20194;-69
2022/09/29 00:38:35;;;;;;;0.60;0.60;;;7.40;99.90;;;;;;5034754;28;20665;-70
2022/09/29 00:41:02;;;;;;;0.60;0.60;;;7.50;99.90;;;;;;5028368;28;20201;-70
2022/09/29 00:44:02;;;;;;;0.60;0.60;;;7.40;99.90;;;;;;5014997;28;20206;-69
2022/09/29 00:46:45;;;;;;;0.65;0.65;;;7.40;99.90;;;;;;5015051;28;20214;-70
2022/09/29 00:49:28;;;;;;;0.60;0.60;;;7.40;99.90;;;;;;5015073;28;20714;-69
2022/09/29 00:51:55;;;;;;;0.70;0.70;;;7.50;99.90;;;;;;5014981;28;20210;-69
2022/09/29 00:54:27;;;;;;;0.70;0.70;;;7.60;99.90;;;;;;5029996;28;20696;-69
2022/09/29 00:56:53;;;;;;;0.60;0.60;;;7.50;99.90;;;;;;5014926;28;20244;-70
2022/09/29 00:59:30;;;;;;;0.60;0.60;;;7.60;99.90;;;;;;5021652;28;20759;-70
2022/09/29 01:01:57;;;;;;;1.00;1.00;;;7.60;99.90;;;;;;5054572;28;20201;-70
2022/09/29 01:04:22;;;;;;;0.70;0.70;;;7.50;99.90;;;;;;5054199;28;20251;-70
2022/09/29 01:06:53;;;;;;;0.60;0.60;;;7.40;99.90;;;;;;5054400;28;20198;-71
2022/09/29 01:09:24;;;;;;;0.68;0.68;;;7.40;99.90;;;;;;5053328;28;20193;-70
2022/09/29 01:11:53;;;;;;;1.00;1.00;;;7.30;99.90;;;;;;5042468;28;20314;-71
2022/09/29 01:14:20;;;;;;;0.60;0.60;;;7.40;99.90;;;;;;5049585;28;20198;-69
2022/09/29 01:16:46;;;;;;;0.60;0.60;;;7.40;99.90;;;;;;5033026;28;20194;-71
2022/09/29 01:19:44;;;;;;;0.70;0.70;;;7.30;99.90;;;;;;5049531;28;20190;-70
2022/09/29 01:22:24;;;;;;;0.70;0.70;;;7.30;99.90;;;;;;5034197;28;20202;-71
2022/09/29 01:24:56;;;;;;;0.55;0.55;;;7.30;99.90;;;;;;5049582;28;20200;-71
2022/09/29 01:27:36;;;;;;;0.65;0.65;;;7.20;99.90;;;;;;5047817;28;20336;-70
2022/09/29 01:30:21;;;;;;;0.77;0.77;;;7.30;99.90;;;;;;5033935;28;20281;-71
2022/09/29 01:33:11;;;;;;;0.77;0.77;;;7.20;99.90;;;;;;5033921;28;20210;-70
2022/09/29 01:36:02;;;;;;;0.60;0.60;;;7.20;99.90;;;;;;5033840;28;20190;-70
2022/09/29 01:38:49;;;;;;;0.95;0.90;;;7.20;99.90;;;;;;5033527;28;20681;-70
2022/09/29 01:41:37;;;;;;;0.57;0.57;;;7.10;99.90;;;;;;5033412;28;20190;-70
2022/09/29 01:44:06;;;;;;;0.60;0.60;;;7.10;99.90;;;;;;5030467;28;20873;-69
2022/09/29 01:46:45;;;;;;;0.60;0.60;;;7.10;99.90;;;;;;5013900;28;20199;-70
2022/09/29 01:49:12;;;;;;;0.50;0.50;;;7.10;99.90;;;;;;5013890;28;20740;-70
2022/09/29 01:51:50;;;;;;;0.70;0.70;;;7.10;99.90;;;;;;5012487;28;20225;-70
2022/09/29 01:54:21;;;;;;;5.35;2.25;;;7.10;99.90;;;;;;5013866;28;20195;-70
2022/09/29 01:56:56;;;;;;;0.60;0.60;;;7.10;99.90;;;;;;5027558;28;20228;-70
2022/09/29 01:59:31;;;;;;;1.20;0.98;;;7.00;99.90;;;;;;5033430;28;20194;-70
2022/09/29 02:02:02;;;;;;;0.65;0.65;;;7.10;99.90;;;;;;5021889;28;20281;-70
2022/09/29 02:04:33;;;;;;;0.60;0.60;;;7.10;99.90;;;;;;5013567;28;20206;-70
2022/09/29 02:07:24;;;;;;;0.50;0.50;;;7.10;99.90;;;;;;5013638;28;20202;-70
2022/09/29 02:09:55;;;;;;;0.60;0.60;;;7.10;99.90;;;;;;5013614;28;20198;-71
2022/09/29 02:12:25;;;;;;;0.50;0.50;;;7.20;99.90;;;;;;5060884;28;20240;-70
2022/09/29 02:14:52;;;;;;;0.60;0.60;;;7.30;99.90;;;;;;5033243;28;20190;-71
2022/09/29 02:17:21;;;;;;;0.60;0.60;;;7.30;99.90;;;;;;5033144;28;20221;-70
2022/09/29 02:19:50;;;;;;;0.60;0.60;;;7.40;99.90;;;;;;5033190;28;20201;-71
2022/09/29 02:22:17;;;;;;;0.63;0.63;;;7.40;99.90;;;;;;5033167;28;20202;-72
2022/09/29 02:24:43;;;;;;;0.70;0.70;;;7.50;99.90;;;;;;5032970;28;20194;-72
2022/09/29 02:27:10;;;;;;;0.47;0.47;;;7.50;99.90;;;;;;5032807;28;20685;-72
2022/09/29 02:29:37;;;;;;;1.02;0.93;;;7.50;99.90;;;;;;5032651;28;20209;-70
2022/09/29 02:32:04;;;;;;;1.13;1.02;;;7.50;99.90;;;;;;5032921;28;20237;-70
2022/09/29 02:34:35;;;;;;;0.50;0.50;;;7.50;99.90;;;;;;5030398;28;20198;-71
2022/09/29 02:37:27;;;;;;;0.70;0.70;;;7.50;99.90;;;;;;5031576;28;20190;-71
2022/09/29 02:40:09;;;;;;;0.70;0.70;;;7.50;99.90;;;;;;5032858;28;20197;-71
2022/09/29 02:42:38;;;;;;;0.80;0.80;;;7.60;99.90;;;;;;5032681;28;20209;-71
2022/09/29 02:45:39;;;;;;;0.82;0.82;;;7.60;99.90;;;;;;5036389;28;20199;-70
2022/09/29 02:48:04;;;;;;;0.65;0.65;;;7.60;99.90;;;;;;5020926;28;20211;-70
2022/09/29 02:50:46;;;;;;;0.60;0.60;;;7.60;99.90;;;;;;5012786;28;20194;-70
2022/09/29 02:53:36;;;;;;;0.60;0.60;;;7.60;99.90;;;;;;5027743;28;20198;-71
2022/09/29 02:56:12;;;;;;;0.50;0.50;;;7.60;99.90;;;;;;5032690;28;20273;-70
2022/09/29 02:58:49;;;;;;;0.52;0.52;;;7.60;99.90;;;;;;5032399;28;20225;-71
2022/09/29 03:01:15;;;;;;;0.80;0.77;;;7.50;99.90;;;;;;5022770;28;20661;-70
2022/09/29 03:03:41;;;;;;;0.70;0.70;;;7.50;99.90;;;;;;5022179;28;20291;-70
2022/09/29 03:06:09;;;;;;;0.60;0.60;;;7.50;99.90;;;;;;5032513;28;20202;-71
2022/09/29 03:08:35;;;;;;;0.60;0.60;;;7.50;99.90;;;;;;5047773;28;20230;-70
2022/09/29 03:11:01;;;;;;;0.70;0.70;;;7.50;99.90;;;;;;5027447;28;20663;-69
2022/09/29 03:13:27;;;;;;;0.70;0.70;;;7.50;99.90;;;;;;5012615;28;20195;-70
2022/09/29 03:15:52;;;;;;;0.60;0.60;;;7.40;99.90;;;;;;5012761;28;20673;-71
2022/09/29 03:18:18;;;;;;;0.60;0.60;;;7.40;99.90;;;;;;5012742;28;20199;-70
2022/09/29 03:20:44;;;;;;;0.50;0.50;;;7.40;99.90;;;;;;5012718;28;20202;-71
2022/09/29 03:23:10;;;;;;;0.60;0.60;;;7.40;99.90;;;;;;5012658;28;20205;-71
2022/09/29 03:25:35;;;;;;;0.70;0.70;;;7.40;99.90;;;;;;5017519;28;20202;-71
2022/09/29 03:28:01;;;;;;;0.75;0.75;;;7.40;99.90;;;;;;5032514;28;20202;-70
2022/09/29 03:30:27;;;;;;;0.60;0.60;;;7.40;99.90;;;;;;5031915;28;20565;-70
2022/09/29 03:32:52;;;;;;;0.57;0.57;;;7.30;99.90;;;;;;5032355;28;20267;-70
2022/09/29 03:35:18;;;;;;;3.40;1.20;;;7.30;99.90;;;;;;5047604;28;20194;-70
2022/09/29 03:37:44;;;;;;;0.63;0.63;;;7.30;99.90;;;;;;5032010;28;20190;-70
2022/09/29 03:40:10;;;;;;;0.60;0.60;;;7.40;99.90;;;;;;5032319;28;20218;-71
2022/09/29 03:42:36;;;;;;;0.60;0.60;;;7.40;99.90;;;;;;5032187;28;20215;-72
2022/09/29 03:45:02;;;;;;;0.70;0.70;;;7.40;99.90;;;;;;5021180;28;20210;-71
2022/09/29 03:47:27;;;;;;;0.60;0.60;;;7.50;99.90;;;;;;5012295;28;20234;-70
2022/09/29 03:49:53;;;;;;;0.68;0.68;;;7.60;99.90;;;;;;5012432;28;20225;-69
2022/09/29 03:52:19;;;;;;;0.50;0.50;;;7.60;99.90;;;;;;5012393;28;20568;-69
2022/09/29 03:54:44;;;;;;;0.60;0.60;;;7.70;99.90;;;;;;5012441;28;20248;-70
2022/09/29 03:57:11;;;;;;;0.50;0.50;;;7.70;99.90;;;;;;5027491;28;20223;-70
2022/09/29 03:59:36;;;;;;;0.70;0.70;;;7.70;99.90;;;;;;5012194;28;20526;-70
2022/09/29 04:02:02;;;;;;;0.70;0.70;;;7.70;99.90;;;;;;5012272;28;20241;-69
2022/09/29 04:04:28;;;;;;;0.60;0.60;;;7.80;99.90;;;;;;5047013;28;20233;-70
2022/09/29 04:06:54;;;;;;;0.70;0.70;;;7.80;99.90;;;;;;5017567;28;20223;-70
2022/09/29 04:09:19;;;;;;;0.68;0.68;;;7.80;99.90;;;;;;5035534;28;20225;-70
2022/09/29 04:11:45;;;;;;;0.63;0.63;;;7.80;99.90;;;;;;5035434;28;20217;-71
2022/09/29 04:14:11;;;;;;;0.90;0.90;;;7.80;99.90;;;;;;5035494;28;20197;-71
2022/09/29 04:16:36;;;;;;;0.63;0.63;;;7.80;99.90;;;;;;5035342;28;20251;-70
2022/09/29 04:19:02;;;;;;;0.50;0.50;;;7.80;99.90;;;;;;5050778;28;20281;-70
2022/09/29 04:21:28;;;;;;;0.50;0.50;;;7.80;99.90;;;;;;5050484;28;20248;-71
2022/09/29 04:23:53;;;;;;;0.65;0.65;;;7.80;99.90;;;;;;5033977;28;20288;-71
2022/09/29 04:26:19;;;;;;;0.52;0.52;;;7.80;99.90;;;;;;5033530;28;20840;-71
2022/09/29 04:28:45;;;;;;;0.60;0.60;;;7.80;99.90;;;;;;5035221;28;20198;-71
2022/09/29 04:31:11;;;;;;;0.50;0.50;;;7.80;99.90;;;;;;5035184;28;20260;-70
2022/09/29 04:33:38;;;;;;;0.60;0.60;;;7.90;99.90;;;;;;5034988;28;20190;-71
2022/09/29 04:36:04;;;;;;;0.70;0.70;;;7.80;99.90;;;;;;5035121;28;20186;-72
2022/09/29 04:38:30;;;;;;;0.60;0.60;;;7.80;99.90;;;;;;5033722;28;20715;-73
2022/09/29 04:40:56;;;;;;;0.57;0.57;;;7.90;99.90;;;;;;5035004;28;20273;-71
2022/09/29 04:43:22;;;;;;;0.60;0.60;;;7.90;99.90;;;;;;5034816;28;20555;-71
2022/09/29 04:45:48;;;;;;;0.60;0.60;;;7.90;99.90;;;;;;5032545;28;20203;-72
2022/09/29 04:48:13;;;;;;;0.95;0.95;;;7.90;99.90;;;;;;5015140;28;20678;-71
2022/09/29 04:50:39;;;;;;;0.60;0.60;;;7.80;99.90;;;;;;5014842;28;20203;-71
2022/09/29 04:53:06;;;;;;;0.50;0.50;;;7.80;99.90;;;;;;5015171;28;20195;-70
2022/09/29 04:56:31;;;;;;;0.57;0.57;;;7.90;99.90;;;;;;5014873;28;20658;-70
2022/09/29 04:59:56;;;;;;;;;;;;;;;;;;;;;
2022/09/29 05:05:29;;;;;;;0.70;0.70;;;7.90;99.90;;;;;;4968186;28;20212;-73
2022/09/29 05:07:54;;;;;;;0.52;0.52;;;7.90;99.90;;;;;;4993085;28;20196;-73
2022/09/29 05:10:20;;;;;;;0.50;0.50;;;8.00;99.90;;;;;;4992846;28;20592;-72
2022/09/29 05:12:49;;;;;;;0.60;0.60;;;8.00;99.90;;;;;;4992892;28;20215;-73
2022/09/29 05:15:16;;;;;;;0.60;0.60;;;8.00;99.90;;;;;;4992151;28;20671;-73
2022/09/29 05:17:42;;;;;;;0.60;0.60;;;8.00;99.90;;;;;;4992596;28;20192;-72
2022/09/29 05:20:08;;;;;;;0.50;0.50;;;8.00;99.90;;;;;;4992962;28;20218;-72
2022/09/29 05:22:34;;;;;;;0.50;0.50;;;8.00;99.90;;;;;;4992303;28;20211;-72
2022/09/29 05:24:59;;;;;;;0.57;0.57;;;8.00;99.90;;;;;;4992488;28;20541;-72
2022/09/29 05:27:25;;;;;;;0.60;0.60;;;8.00;99.90;;;;;;4972999;28;20659;-73
2022/09/29 05:29:51;;;;;;;0.60;0.60;;;8.00;99.90;;;;;;4973229;28;20652;-74
2022/09/29 05:32:16;;;;;;;0.80;0.80;;;8.00;99.90;;;;;;4973183;28;20220;-74
2022/09/29 05:34:42;;;;;;;0.68;0.68;;;8.00;99.90;;;;;;5001836;28;20211;-74
2022/09/29 05:37:08;;;;;;;0.50;0.50;;;8.00;99.90;;;;;;5014199;28;20191;-71
2022/09/29 05:39:36;;;;;;;0.60;0.60;;;8.00;99.90;;;;;;5013931;28;20210;-69
2022/09/29 05:42:05;;;;;;;0.60;0.60;;;8.00;99.90;;;;;;5014279;28;20551;-70
2022/09/29 05:44:32;;;;;;;0.63;0.63;;;8.00;99.90;;;;;;5021007;28;20629;-70
2022/09/29 05:46:58;;;;;;;0.98;0.98;;;8.00;99.90;;;;;;5033919;28;20281;-72
2022/09/29 05:49:28;;;;;;;0.50;0.50;;;8.10;99.90;;;;;;5033581;28;20186;-73
2022/09/29 05:51:53;;;;;;;0.60;0.60;;;8.10;99.90;;;;;;5049323;28;20263;-73
2022/09/29 05:54:20;;;;;;;0.50;0.50;;;8.00;99.90;;;;;;5033626;28;20198;-73
2022/09/29 05:56:45;;;;;;;0.60;0.60;;;8.00;99.90;;;;;;5033603;28;20208;-73
2022/09/29 05:59:12;;;;;;;0.70;0.70;;;8.00;99.90;;;;;;5033371;28;20646;-70
2022/09/29 06:01:37;;;;;;;0.70;0.70;;;8.10;99.90;;;;;;5033242;28;20194;-71
2022/09/29 06:04:03;;;;;;;0.50;0.50;;;8.10;99.90;;;;;;5033408;28;20560;-70
2022/09/29 06:06:28;;;;;;;0.60;0.60;;;8.10;99.90;;;;;;5048625;28;20205;-70
2022/09/29 06:08:59;;;;;;;0.60;0.60;;;8.10;99.90;;;;;;5033349;28;20190;-70
2022/09/29 06:11:27;;;;;;;0.60;0.60;;;8.10;99.90;;;;;;5033176;28;20689;-71
2022/09/29 06:13:54;;;;;;;0.70;0.70;;;8.10;99.90;;;;;;5048427;28;20202;-71
2022/09/29 06:16:23;;;;;;;0.60;0.60;;;8.20;99.90;;;;;;5031746;28;20692;-70
2022/09/29 06:18:49;;;;;;;0.70;0.70;;;8.20;99.90;;;;;;5033180;28;20198;-71
2022/09/29 06:21:17;;;;;;;0.70;0.70;;;8.20;99.90;;;;;;5033197;28;20209;-71
2022/09/29 06:23:43;;;;;;;0.60;0.60;;;8.20;99.90;;;;;;5032913;28;20557;-71
2022/09/29 06:26:11;;;;;;;1.05;0.98;;;8.20;99.90;;;;;;5032690;28;20229;-71
2022/09/29 06:28:38;;;;;;;0.50;0.50;;;8.20;99.90;;;;;;5032914;28;20672;-71
2022/09/29 06:31:12;;;;;;;0.60;0.60;;;8.20;99.90;;;;;;5048330;28;20229;-71
2022/09/29 06:33:38;;;;;;;0.60;0.60;;;8.30;99.90;;;;;;5031488;28;20292;-71
2022/09/29 06:39:00;;;;;;;0.60;0.60;;;8.30;99.90;;;;;;5033029;28;20228;-71
2022/09/29 06:41:27;;;;;;;0.60;0.60;;;8.30;99.90;;;;;;5032683;28;20194;-71
2022/09/29 06:43:53;;;;;;;0.60;0.60;;;8.30;99.90;;;;;;5030606;28;20236;-72
2022/09/29 06:46:18;;;;;;;0.47;0.47;;;8.30;99.90;;;;;;5013028;28;20199;-71
2022/09/29 06:48:44;;;;;;;0.70;0.70;;;8.40;99.90;;;;;;5028163;28;20698;-71
2022/09/29 06:51:10;;;;;;;0.70;0.70;;;8.40;99.90;;;;;;5012866;28;20616;-71
2022/09/29 06:53:36;;;;;;;0.60;0.60;;;8.40;99.90;;;;;;5012729;28;20195;-71
2022/09/29 06:56:02;;;;;;;0.60;0.60;;;8.40;99.90;;;;;;5044549;28;20700;-71
2022/09/29 06:58:28;;;;;;;0.68;0.68;;;8.40;99.90;;;;;;5012794;28;20187;-71
2022/09/29 07:00:54;;;;;;;0.60;0.60;;;8.50;99.90;;;;;;5012831;28;20191;-71
2022/09/29 07:03:21;;;;;;;0.60;0.60;;;8.50;99.90;;;;;;5012802;28;20661;-71
2022/09/29 07:05:46;;;;;;;0.60;0.60;;;8.60;99.90;;;;;;5012894;28;20286;-72
2022/09/29 07:08:12;;;;;;;0.60;0.60;;;8.60;99.90;;;;;;5012814;28;20219;-72
2022/09/29 07:10:38;;;;;;;0.50;0.50;;;8.70;99.90;;;;;;5018152;28;20228;-72
2022/09/29 07:13:04;;;;;;;1.30;1.20;;;8.70;99.90;;;;;;5031208;28;20644;-72
2022/09/29 07:15:30;;;;;;;0.60;0.60;;;8.80;99.90;;;;;;5030984;28;20227;-72
2022/09/29 07:18:00;;;;;;;0.60;0.60;;;8.80;99.90;;;;;;5047716;28;20209;-72
2022/09/29 07:20:28;;;;;;;0.52;0.52;;;8.90;99.90;;;;;;5030887;28;20199;-73
2022/09/29 07:22:54;;;;;;;0.60;0.60;;;9.00;99.90;;;;;;5018592;28;20205;-73
2022/09/29 07:25:20;;;;;;;0.60;0.60;;;9.10;99.90;;;;;;5012538;28;20307;-71
2022/09/29 07:27:47;;;;;;;0.65;0.65;;;9.10;99.90;;;;;;5044329;28;20613;-72
2022/09/29 07:30:13;;;;;;;0.57;0.57;;;9.20;99.90;;;;;;5012662;28;20248;-72
2022/09/29 07:32:39;;;;;;;0.63;0.63;;;9.30;99.90;;;;;;5012405;28;21715;-72
2022/09/29 07:35:05;;;;;;;0.60;0.60;;;9.30;99.90;;;;;;5012749;28;20198;-71
2022/09/29 07:37:31;;;;;;;0.77;0.77;;;9.40;99.90;;;;;;5044245;28;20564;-72
2022/09/29 07:39:57;;;;;;;0.68;0.68;;;9.50;99.90;;;;;;5016449;28;20191;-72
2022/09/29 07:42:22;;;;;;;0.50;0.50;;;9.50;99.90;;;;;;5035126;28;20605;-71
2022/09/29 07:44:48;;;;;;;0.60;0.60;;;9.70;99.90;;;;;;5026649;28;20202;-72
2022/09/29 07:47:14;;;;;;;0.60;0.60;;;9.70;99.90;;;;;;5016335;28;20240;-72
2022/09/29 07:49:40;;;;;;;0.63;0.63;;;9.80;99.90;;;;;;5015976;28;20199;-72
2022/09/29 07:52:06;;;;;;;0.73;0.73;;;9.80;99.90;;;;;;5015991;28;20674;-71
2022/09/29 07:54:32;;;;;;;1.30;1.20;;;9.90;99.90;;;;;;5016137;28;20198;-71
2022/09/29 07:56:59;;;;;;;0.50;0.50;;;10.10;99.90;;;;;;5016143;28;20210;-72
2022/09/29 07:59:26;;;;;;;0.65;0.65;;;10.20;99.90;;;;;;5031097;28;20664;-72
2022/09/29 08:01:52;;;;;;;0.95;0.90;;;10.50;99.90;;;;;;5031175;28;20199;-71
2022/09/29 08:04:18;;;;;;;0.57;0.57;;;10.60;99.90;;;;;;5015997;28;20248;-71
2022/09/29 08:06:45;;;;;;;1.17;1.05;;;10.60;99.90;;;;;;5020345;28;20209;-71
2022/09/29 08:09:11;;;;;;;0.70;0.70;;;10.70;99.90;;;;;;5035661;28;20202;-72
2022/09/29 08:11:39;;;;;;;0.60;0.60;;;10.90;99.90;;;;;;5050564;28;20293;-72
2022/09/29 08:14:05;;;;;;;0.60;0.60;;;11.00;99.90;;;;;;5035558;28;20241;-72
2022/09/29 08:16:32;;;;;;;0.70;0.70;;;11.00;99.90;;;;;;5035260;28;20194;-72
2022/09/29 08:18:58;;;;;;;1.65;1.05;;;11.00;99.90;;;;;;5023149;28;20276;-72
2022/09/29 08:21:24;;;;;;;0.50;0.50;;;11.00;99.90;;;;;;5015443;28;20716;-72
2022/09/29 08:23:50;;;;;;;0.70;0.70;;;10.90;99.90;;;;;;5015553;28;20272;-72
2022/09/29 08:26:18;;;;;;;0.70;0.70;;;10.80;99.90;;;;;;5015423;28;20675;-72
2022/09/29 08:28:45;;;;;;;0.60;0.60;;;10.70;99.90;;;;;;5015457;28;20191;-72
2022/09/29 08:31:13;;;;;;;0.60;0.60;;;10.70;99.90;;;;;;5015422;28;20289;-72
2022/09/29 08:33:39;;;;;;;0.60;0.60;;;10.70;99.90;;;;;;5015220;28;20776;-72
2022/09/29 08:36:13;;;;;;;0.70;0.70;;;10.70;99.90;;;;;;5015392;28;20197;-71
2022/09/29 08:38:46;;;;;;;0.60;0.60;;;10.70;99.90;;;;;;5015194;28;20233;-72
2022/09/29 08:41:37;;;;;;;0.88;0.88;;;10.70;99.90;;;;;;5015366;28;20199;-72
2022/09/29 08:44:11;;;;;;;0.80;0.80;;;10.60;99.90;;;;;;5015099;28;20226;-72
2022/09/29 08:46:43;;;;;;;1.33;0.98;;;10.50;99.90;;;;;;5015061;28;20191;-71
2022/09/29 08:49:31;;;;;;;0.80;0.80;;;10.50;99.90;;;;;;5022837;28;20621;-72
2022/09/29 08:52:04;;;;;;;0.93;0.85;;;10.50;99.90;;;;;;5034779;28;20210;-72
2022/09/29 08:54:36;;;;;;;0.73;0.73;;;10.50;99.90;;;;;;5034729;28;20657;-71
2022/09/29 08:57:04;;;;;;;0.73;0.73;;;10.60;99.90;;;;;;5034701;28;20646;-72
2022/09/29 08:59:31;;;;;;;1.30;1.20;;;10.70;99.90;;;;;;5034620;28;20631;-71
2022/09/29 09:02:27;;;;;;;1.30;1.17;;;10.80;99.90;;;;;;5033343;28;20204;-72
2022/09/29 09:05:08;;;;;;;0.80;0.80;;;10.90;99.90;;;;;;5014868;28;20206;-72
2022/09/29 09:07:50;;;;;;;0.60;0.60;;;11.00;99.90;;;;;;5023047;28;20356;-71
2022/09/29 09:10:46;;;;;;;2.47;1.77;;;11.20;99.90;;;;;;5034618;28;20198;-72
2022/09/29 09:13:20;;;;;;;1.40;1.30;;;11.40;99.90;;;;;;5034508;28;20251;-72
2022/09/29 09:16:15;;;;;;;1.27;1.17;;;11.60;99.90;;;;;;5017546;28;20222;-72
2022/09/29 09:18:58;;;;;;;5.28;4.05;;;11.60;99.90;;;;;;5046233;28;20554;-72
2022/09/29 09:21:27;;;;;;;12.38;2.35;;;11.60;99.90;;;;;;5014321;28;20226;-71
2022/09/29 09:23:55;;;;;;;5.15;3.70;;;11.50;99.90;;;;;;5014426;28;20257;-72
2022/09/29 09:26:42;;;;;;;2.20;1.70;;;11.60;99.90;;;;;;5045743;28;20265;-71
2022/09/29 09:29:23;;;;;;;1.20;1.10;;;11.50;99.90;;;;;;5014387;28;20728;-72
2022/09/29 09:32:04;;;;;;;0.50;0.50;;;11.50;99.90;;;;;;5014268;28;20234;-73
2022/09/29 09:34:37;;;;;;;0.50;0.50;;;11.30;99.90;;;;;;5029368;28;20613;-72
2022/09/29 09:37:15;;;;;;;0.60;0.60;;;11.30;99.90;;;;;;5014117;28;20638;-71
2022/09/29 09:39:57;;;;;;;0.70;0.70;;;11.30;99.90;;;;;;5013917;28;20190;-71
2022/09/29 09:42:31;;;;;;;0.90;0.90;;;11.30;99.90;;;;;;5013948;28;20198;-72
2022/09/29 09:45:17;;;;;;;0.75;0.75;;;11.20;99.90;;;;;;5013695;28;20236;-72
2022/09/29 09:47:51;;;;;;;0.65;0.65;;;11.20;99.90;;;;;;5045427;28;20218;-73
2022/09/29 09:50:24;;;;;;;0.60;0.60;;;11.20;99.90;;;;;;5014024;28;20249;-71
2022/09/29 09:53:02;;;;;;;0.50;0.50;;;11.20;99.90;;;;;;5013989;28;20627;-72
2022/09/29 09:55:33;;;;;;;0.50;0.50;;;11.10;99.90;;;;;;5013838;28;20199;-71
2022/09/29 09:58:14;;;;;;;0.70;0.70;;;11.10;99.90;;;;;;5013973;28;20274;-72
2022/09/29 10:00:42;;;;;;;0.50;0.50;;;11.10;99.90;;;;;;5044757;28;20684;-72
2022/09/29 10:03:09;;;;;;;0.55;0.55;;;11.10;99.90;;;;;;5033338;28;20556;-72
2022/09/29 10:05:47;;;;;;;0.75;0.75;;;11.30;99.90;;;;;;5033271;28;20554;-71
2022/09/29 10:08:41;;;;;;;0.60;0.60;;;11.60;99.90;;;;;;5033461;28;20193;-71
2022/09/29 10:11:26;;;;;;;0.60;0.60;;;11.80;99.90;;;;;;5024039;28;20229;-72
2022/09/29 10:14:08;;;;;;;0.50;0.50;;;12.10;99.90;;;;;;5045375;28;20195;-71
2022/09/29 10:16:44;;;;;;;0.68;0.68;;;12.20;99.90;;;;;;5013477;28;20209;-71
2022/09/29 10:19:10;;;;;;;0.52;0.52;;;12.20;99.90;;;;;;5013475;28;20195;-71
2022/09/29 10:21:43;;;;;;;0.60;0.60;;;12.10;99.90;;;;;;5013294;28;20195;-72
2022/09/29 10:24:29;;;;;;;0.50;0.50;;;11.90;99.90;;;;;;5013477;28;20195;-71
2022/09/29 10:26:58;;;;;;;0.60;0.60;;;11.80;99.90;;;;;;5013183;28;20622;-72
2022/09/29 10:29:27;;;;;;;1.50;0.98;;;11.70;99.90;;;;;;5045002;28;20203;-72
2022/09/29 10:32:09;;;;;;;0.80;0.80;;;11.60;99.90;;;;;;5013169;28;20219;-71
2022/09/29 10:34:39;;;;;;;0.70;0.70;;;11.50;99.90;;;;;;5013105;28;20197;-72
2022/09/29 10:37:19;;;;;;;0.60;0.60;;;11.60;99.90;;;;;;5013184;28;20620;-70
2022/09/29 10:39:49;;;;;;;0.70;0.70;;;11.60;99.90;;;;;;5013113;28;20194;-70
2022/09/29 10:42:32;;;;;;;0.50;0.50;;;11.60;99.90;;;;;;5013066;28;20209;-70
2022/09/29 10:45:14;;;;;;;0.52;0.52;;;11.60;99.90;;;;;;5013126;28;20202;-70
2022/09/29 10:47:44;;;;;;;0.70;0.70;;;11.70;99.90;;;;;;5011591;28;20348;-70
2022/09/29 10:50:20;;;;;;;0.60;0.60;;;11.80;99.90;;;;;;5012991;28;20694;-71
2022/09/29 10:52:53;;;;;;;0.60;0.60;;;11.90;99.90;;;;;;5012928;28;20670;-71
2022/09/29 10:55:34;;;;;;;0.60;0.60;;;12.00;99.90;;;;;;5015808;28;20286;-70
2022/09/29 10:58:24;;;;;;;0.60;0.60;;;12.00;99.90;;;;;;5047973;28;20545;-71
2022/09/29 11:01:07;;;;;;;0.50;0.50;;;12.00;99.90;;;;;;5028424;28;20681;-71
2022/09/29 11:03:36;;;;;;;0.50;0.50;;;12.00;99.90;;;;;;5032447;28;20673;-70
2022/09/29 11:06:03;;;;;;;0.60;0.60;;;12.00;99.90;;;;;;5031167;28;20222;-71
2022/09/29 11:08:30;;;;;;;0.60;0.60;;;12.00;99.90;;;;;;5013979;28;20636;-71
2022/09/29 11:11:16;;;;;;;0.50;0.50;;;11.90;99.90;;;;;;5012807;28;20198;-71
2022/09/29 11:13:44;;;;;;;0.52;0.52;;;11.70;99.90;;;;;;5013414;28;20200;-71
2022/09/29 11:16:21;;;;;;;0.70;0.70;;;11.50;99.90;;;;;;5032161;28;20329;-71
2022/09/29 11:18:51;;;;;;;0.60;0.60;;;11.50;99.90;;;;;;5016848;28;20587;-71
2022/09/29 11:21:22;;;;;;;0.50;0.50;;;11.50;99.90;;;;;;5031892;28;20571;-71
2022/09/29 11:24:06;;;;;;;0.50;0.50;;;11.50;99.90;;;;;;5016749;28;20282;-71
2022/09/29 11:26:39;;;;;;;0.50;0.50;;;11.50;99.90;;;;;;5028272;28;20795;-71
2022/09/29 11:29:27;;;;;;;0.50;0.50;;;11.70;99.90;;;;;;5036438;28;20190;-71
2022/09/29 11:32:13;;;;;;;0.80;0.65;;;11.80;99.90;;;;;;5018520;28;20214;-71
2022/09/29 11:34:52;;;;;;;0.60;0.60;;;12.10;99.90;;;;;;5036274;28;20680;-71
2022/09/29 11:37:54;;;;;;;0.50;0.50;;;12.00;99.90;;;;;;5030655;28;20695;-71
2022/09/29 11:40:59;;;;;;;0.60;0.60;;;12.00;99.90;;;;;;5003240;28;20206;-71
2022/09/29 11:43:50;;;;;;;0.60;0.60;;;12.10;99.90;;;;;;5016104;28;20221;-71
2022/09/29 11:46:44;;;;;;;0.50;0.50;;;12.00;99.90;;;;;;4996666;28;20755;-71
2022/09/29 11:49:32;;;;;;;0.60;0.60;;;11.90;99.90;;;;;;4996715;28;20370;-71
2022/09/29 11:52:06;;;;;;;0.50;0.50;;;12.00;99.90;;;;;;5002570;28;20214;-71
2022/09/29 11:55:09;;;;;;;0.50;0.50;;;12.20;99.90;;;;;;4998409;28;20199;-71
2022/09/29 11:57:47;;;;;;;0.57;0.57;;;12.30;99.90;;;;;;5015772;28;20277;-70
2022/09/29 12:00:14;;;;;;;0.60;0.60;;;12.50;99.90;;;;;;5016021;28;20191;-71
2022/09/29 12:03:12;;;;;;;0.50;0.50;;;12.60;99.90;;;;;;4998067;28;20209;-71
2022/09/29 12:05:54;;;;;;;0.80;0.80;;;12.60;99.90;;;;;;5015731;28;20278;-71
2022/09/29 12:08:38;;;;;;;0.60;0.60;;;12.70;99.90;;;;;;5015805;28;20544;-71
2022/09/29 12:11:23;;;;;;;0.50;0.50;;;12.50;99.90;;;;;;5015733;28;20203;-71
2022/09/29 12:14:10;;;;;;;0.50;0.50;;;12.60;99.90;;;;;;5015771;28;20186;-71
2022/09/29 12:16:40;;;;;;;0.50;0.50;;;12.60;99.90;;;;;;5015550;28;20270;-71
2022/09/29 12:19:19;;;;;;;0.50;0.50;;;12.60;99.90;;;;;;5014439;28;20217;-71
2022/09/29 12:21:50;;;;;;;0.60;0.60;;;12.60;99.90;;;;;;5015582;28;20249;-71
2022/09/29 12:24:23;;;;;;;0.45;0.45;;;12.60;99.90;;;;;;5015287;28;20191;-71
2022/09/29 12:26:49;;;;;;;0.60;0.60;;;12.50;99.90;;;;;;5024076;28;20260;-71
2022/09/29 12:29:40;;;;;;;0.70;0.70;;;12.30;99.90;;;;;;5035262;28;20289;-71
2022/09/29 12:32:28;;;;;;;0.40;0.40;;;12.40;99.90;;;;;;5035166;28;20214;-71
2022/09/29 12:35:19;;;;;;;0.60;0.60;;;12.60;99.90;;;;;;5034985;28;20269;-71
2022/09/29 12:38:09;;;;;;;0.60;0.60;;;12.70;99.90;;;;;;5034673;28;20717;-71
2022/09/29 12:40:40;;;;;;;0.60;0.60;;;12.90;99.90;;;;;;5035013;28;20654;-71
2022/09/29 12:43:26;;;;;;;0.50;0.50;;;13.20;99.90;;;;;;5034951;28;20205;-71
2022/09/29 12:46:10;;;;;;;0.43;0.43;;;13.50;99.90;;;;;;5016578;28;20605;-71
2022/09/29 12:48:53;;;;;;;0.50;0.50;;;13.60;99.90;;;;;;5024251;28;20214;-71
2022/09/29 12:51:22;;;;;;;0.50;0.50;;;13.40;99.90;;;;;;5034745;28;20204;-71
2022/09/29 12:54:05;;;;;;;0.50;0.50;;;13.10;99.90;;;;;;5034570;28;20202;-71
2022/09/29 12:56:53;;;;;;;0.50;0.50;;;12.80;99.90;;;;;;5034625;28;20198;-71
2022/09/29 12:59:33;;;;;;;0.50;0.50;;;12.40;99.90;;;;;;5034408;28;20197;-70
2022/09/29 13:02:07;;;;;;;0.50;0.50;;;12.20;99.90;;;;;;5034630;28;20204;-71
2022/09/29 13:04:54;;;;;;;0.60;0.60;;;12.00;99.90;;;;;;5034373;28;20298;-71
2022/09/29 13:07:57;;;;;;;0.50;0.50;;;12.00;99.90;;;;;;5034448;28;20197;-70
2022/09/29 13:10:41;;;;;;;0.60;0.60;;;12.30;99.90;;;;;;5033283;28;20566;-71
2022/09/29 13:13:26;;;;;;;0.47;0.47;;;12.60;99.90;;;;;;5034428;28;20205;-71
2022/09/29 13:16:27;;;;;;;0.60;0.60;;;12.90;99.90;;;;;;5034371;28;20595;-71
2022/09/29 13:18:55;;;;;;;0.40;0.40;;;13.20;99.90;;;;;;5049735;28;20539;-71
2022/09/29 13:21:43;;;;;;;0.68;0.68;;;13.30;99.90;;;;;;5049485;28;20567;-71
2022/09/29 13:24:16;;;;;;;0.50;0.50;;;13.00;99.90;;;;;;5034296;28;20198;-71
2022/09/29 13:26:54;;;;;;;0.50;0.50;;;12.80;99.90;;;;;;5033897;28;20237;-71
2022/09/29 13:29:22;;;;;;;0.50;0.50;;;12.70;99.90;;;;;;5033808;28;20201;-70